Time;durP1;ratioP1;P1;durP2;ratioP2;P2;SDS_P1;SDS_P2;PMS_P1;PMS_P2;Temp;Humidity;BMP_temperature;BMP_pressure;BME280_temperature;BME280_humidity;BME280_pressure;Samples;Min_cycle;Max_cycle;Signal;HPM_P1;HPM_P2
2024/02/27 00:01:50;;;;;;;10.52;5.15;;;;;;;11.53;59.33;100838.81;5027401;27;96787;-76
2024/02/27 00:04:16;;;;;;;7.47;4.45;;;;;;;11.60;59.21;100844.72;5027200;27;97902;-75
2024/02/27 00:06:43;;;;;;;6.32;4.22;;;;;;;11.50;59.27;100846.84;5022949;27;98929;-76
2024/02/27 00:09:14;;;;;;;7.22;4.35;;;;;;;11.49;59.43;100845.13;5020975;27;97827;-75
2024/02/27 00:11:41;;;;;;;9.30;4.93;;;;;;;11.39;59.56;100856.13;5025263;27;96879;-75
2024/02/27 00:14:08;;;;;;;7.97;4.53;;;;;;;11.51;59.24;100859.16;5023573;27;99004;-75
2024/02/27 00:16:35;;;;;;;8.00;4.40;;;;;;;11.37;59.73;100847.34;5022638;27;98769;-75
2024/02/27 00:19:01;;;;;;;6.95;4.50;;;;;;;11.40;59.72;100855.19;5023949;27;96920;-76
2024/02/27 00:21:29;;;;;;;8.57;4.78;;;;;;;11.53;59.62;100859.97;5021589;27;97225;-76
2024/02/27 00:23:55;;;;;;;5.65;4.40;;;;;;;11.49;59.35;100858.34;5026572;27;100194;-75
2024/02/27 00:26:21;;;;;;;7.88;4.88;;;;;;;11.46;59.43;100857.63;5028664;27;99720;-75
2024/02/27 00:28:48;;;;;;;7.88;4.75;;;;;;;11.37;59.19;100864.09;5023370;27;96935;-75
2024/02/27 00:31:16;;;;;;;6.72;4.32;;;;;;;11.37;59.60;100866.75;5019447;27;96768;-74
2024/02/27 00:33:42;;;;;;;6.53;4.70;;;;;;;11.33;59.84;100862.50;5028663;27;98343;-74
2024/02/27 00:36:09;;;;;;;6.53;4.60;;;;;;;11.30;59.58;100862.59;5025663;27;98945;-72
2024/02/27 00:38:36;;;;;;;8.05;4.82;;;;;;;11.30;59.25;100867.88;5028008;27;97692;-73
2024/02/27 00:41:02;;;;;;;7.88;4.28;;;;;;;11.36;59.29;100869.44;5023983;27;97970;-73
2024/02/27 00:43:29;;;;;;;10.35;5.10;;;;;;;11.31;59.52;100871.41;5024652;27;99293;-73
2024/02/27 00:45:55;;;;;;;7.78;4.95;;;;;;;11.18;59.99;100865.69;5029420;27;101556;-72
2024/02/27 00:48:23;;;;;;;6.20;4.82;;;;;;;11.33;59.83;100875.72;5029793;27;97487;-73
2024/02/27 00:50:49;;;;;;;7.93;4.75;;;;;;;11.28;59.61;100869.75;5026908;27;96860;-73
2024/02/27 00:53:16;;;;;;;6.13;4.65;;;;;;;11.16;59.63;100875.44;5026410;27;103556;-75
2024/02/27 00:55:43;;;;;;;7.35;4.57;;;;;;;10.95;60.46;100878.88;5024842;27;99185;-75
2024/02/27 00:58:10;;;;;;;6.22;4.70;;;;;;;11.03;61.13;100874.16;5025407;27;96833;-74
2024/02/27 01:00:36;;;;;;;7.63;4.90;;;;;;;11.16;60.33;100864.88;5029743;27;97060;-75
2024/02/27 01:03:03;;;;;;;7.22;4.50;;;;;;;11.03;60.43;100869.75;5023223;27;97902;-74
2024/02/27 01:05:31;;;;;;;9.85;5.70;;;;;;;11.15;60.17;100869.34;5027491;27;99401;-75
2024/02/27 01:07:57;;;;;;;6.90;5.15;;;;;;;11.09;60.30;100864.22;5029206;27;96768;-76
2024/02/27 01:10:24;;;;;;;8.05;5.30;;;;;;;10.96;60.62;100870.03;5025904;27;97357;-75
2024/02/27 01:12:50;;;;;;;7.72;5.43;;;;;;;10.88;61.14;100870.31;5022822;27;98864;-75
2024/02/27 01:15:17;;;;;;;7.13;4.95;;;;;;;11.08;60.57;100869.59;5028496;27;97547;-74
2024/02/27 01:17:43;;;;;;;6.72;5.07;;;;;;;11.03;60.60;100867.09;5023261;27;97170;-74
2024/02/27 01:20:10;;;;;;;9.45;5.78;;;;;;;11.02;60.75;100875.09;5027234;27;97039;-74
2024/02/27 01:22:38;;;;;;;8.50;5.32;;;;;;;10.90;60.95;100883.44;5028184;27;98910;-75
2024/02/27 01:25:06;;;;;;;9.77;5.50;;;;;;;10.71;61.29;100881.44;5023377;27;101282;-73
2024/02/27 01:27:32;;;;;;;12.85;5.78;;;;;;;10.65;61.43;100884.28;5026599;27;96840;-75
2024/02/27 01:29:58;;;;;;;10.75;4.97;;;;;;;10.67;61.62;100887.75;5026506;27;99253;-74
2024/02/27 01:32:25;;;;;;;10.05;4.85;;;;;;;10.60;62.23;100891.50;5024450;27;98893;-75
2024/02/27 01:34:51;;;;;;;8.48;5.28;;;;;;;10.68;62.00;100884.19;5028767;27;99366;-75
2024/02/27 01:37:17;;;;;;;10.15;5.30;;;;;;;10.64;62.12;100881.69;5029349;27;97362;-74
2024/02/27 01:39:46;;;;;;;6.28;5.00;;;;;;;10.83;61.22;100882.78;5027829;27;96771;-75
2024/02/27 01:42:13;;;;;;;10.70;5.40;;;;;;;10.87;61.14;100891.50;5024554;27;98930;-75
2024/02/27 01:44:48;;;;;;;8.80;5.15;;;;;;;10.98;61.27;100891.97;5024043;27;98687;-75
2024/02/27 01:47:14;;;;;;;7.60;5.05;;;;;;;11.03;60.14;100892.66;5028693;27;96772;-76
2024/02/27 01:49:42;;;;;;;12.15;5.45;;;;;;;10.79;60.99;100903.19;5022782;27;97741;-76
2024/02/27 01:52:09;;;;;;;6.60;4.75;;;;;;;10.85;60.84;100910.03;5028458;27;99031;-76
2024/02/27 01:54:36;;;;;;;5.95;4.20;;;;;;;10.89;60.82;100913.47;5026097;27;99065;-77
2024/02/27 01:57:05;;;;;;;8.90;5.07;;;;;;;10.84;60.55;100910.09;5025747;27;97145;-76
2024/02/27 01:59:32;;;;;;;7.28;4.78;;;;;;;10.72;61.13;100920.16;5027461;27;97021;-76
2024/02/27 02:02:01;;;;;;;8.70;4.97;;;;;;;10.93;60.58;100921.22;5029002;27;98939;-76
2024/02/27 02:04:28;;;;;;;9.13;5.45;;;;;;;10.92;60.61;100924.78;5025852;27;98792;-76
2024/02/27 02:06:55;;;;;;;7.03;4.72;;;;;;;10.90;60.34;100928.38;5023709;27;97755;-77
2024/02/27 02:09:21;;;;;;;8.32;5.25;;;;;;;10.89;60.72;100926.69;5026226;27;97282;-76
2024/02/27 02:11:48;;;;;;;8.32;4.85;;;;;;;11.03;60.17;100919.97;5025383;27;98863;-75
2024/02/27 02:14:16;;;;;;;9.63;5.03;;;;;;;11.08;60.07;100923.34;5026992;27;98815;-75
2024/02/27 02:16:42;;;;;;;5.95;4.63;;;;;;;11.10;59.90;100920.63;5021417;27;101544;-76
2024/02/27 02:19:09;;;;;;;8.10;4.93;;;;;;;10.98;60.25;100918.41;5029797;27;98437;-75
2024/02/27 02:21:37;;;;;;;9.63;5.30;;;;;;;10.93;60.81;100923.00;5029999;27;99321;-75
2024/02/27 02:24:03;;;;;;;9.10;4.78;;;;;;;10.97;60.29;100921.97;5030276;27;99700;-75
2024/02/27 02:26:32;;;;;;;9.00;4.82;;;;;;;10.89;60.11;100921.41;5029731;27;97136;-75
2024/02/27 02:28:59;;;;;;;9.25;5.60;;;;;;;10.94;60.31;100924.75;5019773;27;98444;-75
2024/02/27 02:31:27;;;;;;;8.10;4.38;;;;;;;10.75;60.55;100925.38;5027909;27;98851;-74
2024/02/27 02:33:54;;;;;;;7.45;4.72;;;;;;;10.60;60.99;100932.91;5023685;27;98745;-75
2024/02/27 02:36:20;;;;;;;8.43;4.20;;;;;;;10.76;60.75;100929.72;5028885;27;97277;-73
2024/02/27 02:38:48;;;;;;;5.95;4.47;;;;;;;10.88;60.66;100933.75;5028972;27;96938;-77
2024/02/27 02:41:14;;;;;;;6.72;4.50;;;;;;;10.83;60.73;100937.47;5027337;27;98871;-76
2024/02/27 02:43:41;;;;;;;4.93;4.13;;;;;;;10.83;60.25;100938.28;5027454;27;101633;-75
2024/02/27 02:46:07;;;;;;;5.75;3.90;;;;;;;10.84;60.10;100939.16;5030498;27;96808;-76
2024/02/27 02:48:35;;;;;;;6.03;3.78;;;;;;;10.75;60.54;100935.06;5024956;27;97598;-75
2024/02/27 02:51:02;;;;;;;5.20;3.90;;;;;;;10.76;60.67;100944.72;5025345;27;99587;-76
2024/02/27 02:53:28;;;;;;;7.30;4.63;;;;;;;10.72;60.52;100933.38;5023953;27;100615;-76
2024/02/27 02:55:56;;;;;;;8.38;4.47;;;;;;;10.65;60.59;100937.13;5019329;27;97038;-76
2024/02/27 02:58:22;;;;;;;6.93;3.88;;;;;;;10.84;60.12;100929.47;5028057;27;99161;-76
2024/02/27 03:00:49;;;;;;;13.73;4.63;;;;;;;10.66;60.45;100936.22;5028205;27;98821;-73
2024/02/27 03:03:15;;;;;;;8.43;4.53;;;;;;;10.70;60.04;100936.97;5027041;27;101359;-74
2024/02/27 03:05:42;;;;;;;5.90;4.35;;;;;;;10.89;60.16;100940.75;5023262;27;96793;-74
2024/02/27 03:08:08;;;;;;;7.07;4.47;;;;;;;10.96;59.39;100946.72;5026300;27;97225;-74
2024/02/27 03:10:35;;;;;;;6.78;4.47;;;;;;;10.76;59.92;100950.03;5028478;27;100564;-74
2024/02/27 03:13:03;;;;;;;10.07;4.68;;;;;;;10.76;60.16;100957.94;5026155;27;99215;-74
2024/02/27 03:15:31;;;;;;;6.38;4.43;;;;;;;10.91;60.02;100959.19;5024552;27;98779;-74
2024/02/27 03:17:57;;;;;;;5.57;4.10;;;;;;;10.90;59.59;100963.63;5027257;27;97860;-75
2024/02/27 03:20:24;;;;;;;5.90;4.22;;;;;;;10.82;59.84;100959.53;5027196;27;97661;-73
2024/02/27 03:22:50;;;;;;;6.28;4.30;;;;;;;10.86;60.00;100956.72;5023691;27;99002;-74
2024/02/27 03:25:17;;;;;;;10.73;4.55;;;;;;;10.84;60.02;100950.59;5020589;27;96682;-74
2024/02/27 03:27:45;;;;;;;7.05;4.68;;;;;;;10.71;60.29;100954.56;5026671;27;96901;-75
2024/02/27 03:30:15;;;;;;;5.32;4.15;;;;;;;10.75;60.56;100957.09;5024881;27;97831;-75
2024/02/27 03:32:41;;;;;;;11.82;4.80;;;;;;;10.89;60.20;100955.75;5022686;27;101392;-75
2024/02/27 03:35:09;;;;;;;6.90;4.63;;;;;;;10.66;60.46;100967.06;5025121;27;97965;-75
2024/02/27 03:37:35;;;;;;;9.15;4.80;;;;;;;10.69;60.43;100967.84;5024696;27;97217;-75
2024/02/27 03:40:01;;;;;;;10.73;4.70;;;;;;;10.63;61.13;100970.66;5023095;27;100203;-74
2024/02/27 03:42:28;;;;;;;9.07;4.50;;;;;;;10.64;60.78;100977.69;5028291;27;98742;-74
2024/02/27 03:44:54;;;;;;;7.82;4.57;;;;;;;10.72;60.92;100977.44;5021676;27;97622;-75
2024/02/27 03:47:25;;;;;;;6.50;4.88;;;;;;;10.75;60.47;100970.28;5024337;27;96942;-74
2024/02/27 03:49:51;;;;;;;8.77;5.03;;;;;;;10.75;60.48;100980.88;5022895;27;101012;-75
2024/02/27 03:52:18;;;;;;;7.93;4.68;;;;;;;10.56;61.02;100979.72;5027822;27;97389;-76
2024/02/27 03:54:44;;;;;;;6.80;4.32;;;;;;;10.70;61.03;100987.19;5029668;27;97533;-76
2024/02/27 03:57:11;;;;;;;8.45;5.57;;;;;;;10.68;60.87;100984.63;5026310;27;97194;-74
2024/02/27 03:59:37;;;;;;;15.27;8.57;;;;;;;10.58;61.41;100977.88;5026664;27;99427;-74
2024/02/27 04:02:03;;;;;;;8.88;5.07;;;;;;;10.48;61.42;100971.19;5024986;27;98881;-74
2024/02/27 04:04:31;;;;;;;7.35;4.90;;;;;;;10.51;61.69;100971.06;5023406;27;98297;-73
2024/02/27 04:06:57;;;;;;;9.70;5.57;;;;;;;10.40;62.12;100975.81;5028669;27;97374;-74
2024/02/27 04:09:24;;;;;;;8.65;5.60;;;;;;;10.48;62.00;100978.22;5021557;27;98886;-73
2024/02/27 04:11:50;;;;;;;10.98;5.70;;;;;;;10.41;62.20;100979.34;5026348;27;99252;-73
2024/02/27 04:14:17;;;;;;;8.32;5.22;;;;;;;10.30;62.47;100987.59;5025673;27;97137;-74
2024/02/27 04:16:43;;;;;;;8.77;5.50;;;;;;;10.48;62.11;100991.44;5026678;27;97837;-74
2024/02/27 04:19:10;;;;;;;9.80;5.45;;;;;;;10.40;62.35;100994.31;5029757;27;98963;-74
2024/02/27 04:21:37;;;;;;;6.78;5.00;;;;;;;10.46;62.76;100990.63;5037917;27;99952;-74
2024/02/27 04:24:05;;;;;;;8.05;5.72;;;;;;;10.54;62.25;100997.41;5026535;27;98294;-74
2024/02/27 04:26:31;;;;;;;9.07;5.82;;;;;;;10.39;62.14;100992.59;5032136;27;97458;-74
2024/02/27 04:28:57;;;;;;;10.73;5.93;;;;;;;10.34;62.62;100994.50;5030539;27;101751;-74
2024/02/27 04:31:24;;;;;;;10.60;6.20;;;;;;;10.52;62.56;101001.84;5024349;27;98889;-74
2024/02/27 04:33:50;;;;;;;9.73;5.97;;;;;;;10.56;62.35;101010.56;5027726;27;96825;-73
2024/02/27 04:36:17;;;;;;;11.50;6.63;;;;;;;10.55;62.25;101011.47;5026841;27;96870;-75
2024/02/27 04:38:45;;;;;;;9.75;6.60;;;;;;;10.51;62.57;101012.47;5028875;27;100090;-73
2024/02/27 04:41:11;;;;;;;9.45;6.30;;;;;;;10.40;62.68;101010.16;5027944;27;98872;-74
2024/02/27 04:43:38;;;;;;;11.73;6.72;;;;;;;10.43;62.58;101003.94;5031680;27;97437;-73
2024/02/27 04:46:04;;;;;;;14.90;7.20;;;;;;;10.34;63.13;101005.06;5028164;27;97159;-74
2024/02/27 04:48:31;;;;;;;14.65;6.22;;;;;;;10.39;63.29;101005.78;5031245;27;99206;-75
2024/02/27 04:50:56;;;;;;;10.27;6.22;;;;;;;10.36;63.19;101000.63;5028045;27;97631;-73
2024/02/27 04:53:23;;;;;;;;;;;;;;;10.35;63.13;100990.97;5031553;27;97158;-73
2024/02/27 04:55:50;;;;;;;10.32;6.82;;;;;;;10.35;63.41;100983.03;5031702;27;97164;-74
2024/02/27 04:58:17;;;;;;;10.10;6.32;;;;;;;10.20;63.69;100987.00;5027190;27;99351;-74
2024/02/27 05:00:43;;;;;;;14.98;8.73;;;;;;;10.25;63.83;100982.44;5032458;27;101758;-74
2024/02/27 05:03:10;;;;;;;11.63;7.22;;;;;;;10.33;63.61;100993.63;5022889;27;96892;-73
2024/02/27 05:05:36;;;;;;;12.65;8.20;;;;;;;10.22;64.07;100990.47;5026612;27;98020;-74
2024/02/27 05:08:03;;;;;;;13.15;7.88;;;;;;;10.25;63.67;100981.56;5025921;27;98384;-73
2024/02/27 05:10:29;;;;;;;18.58;9.95;;;;;;;10.26;63.63;100981.53;5024739;27;99535;-74
2024/02/27 05:12:57;;;;;;;10.88;7.07;;;;;;;10.19;63.83;100977.34;5026770;27;96766;-75
2024/02/27 05:15:24;;;;;;;14.50;8.18;;;;;;;10.15;64.39;100985.38;5025013;27;97462;-74
2024/02/27 05:17:50;;;;;;;11.60;7.97;;;;;;;10.15;64.49;100986.25;5027139;27;101137;-74
2024/02/27 05:20:17;;;;;;;13.70;6.85;;;;;;;10.02;64.99;100989.28;5022580;27;98690;-73
2024/02/27 05:22:43;;;;;;;15.35;8.57;;;;;;;9.91;65.08;100995.72;5024160;27;97206;-74
2024/02/27 05:25:10;;;;;;;15.35;8.10;;;;;;;10.09;64.72;100990.84;5026592;27;97043;-74
2024/02/27 05:27:37;;;;;;;14.45;8.13;;;;;;;10.13;64.50;100988.06;5030079;27;98414;-73
2024/02/27 05:30:07;;;;;;;13.43;8.70;;;;;;;10.05;65.10;101000.63;5028372;27;96784;-74
2024/02/27 05:32:34;;;;;;;15.07;8.70;;;;;;;10.16;64.63;101001.19;5025938;27;97916;-74
2024/02/27 05:35:00;;;;;;;13.80;9.20;;;;;;;9.99;65.34;101014.00;5025885;27;96837;-74
2024/02/27 05:37:26;;;;;;;16.10;9.40;;;;;;;10.02;65.23;101018.34;5025825;27;99886;-75
2024/02/27 05:39:53;;;;;;;16.70;9.68;;;;;;;9.86;65.79;101021.41;5025974;27;101461;-74
2024/02/27 05:42:19;;;;;;;17.35;8.93;;;;;;;9.83;65.85;101028.56;5031745;27;97013;-74
2024/02/27 05:44:46;;;;;;;17.25;10.05;;;;;;;9.65;66.45;101034.34;5030550;27;97530;-74
2024/02/27 05:47:14;;;;;;;17.77;10.25;;;;;;;9.82;66.38;101032.97;5027709;27;98254;-74
2024/02/27 05:49:40;;;;;;;17.20;10.52;;;;;;;9.94;66.04;101047.59;5031325;27;98901;-75
2024/02/27 05:52:07;;;;;;;16.02;10.75;;;;;;;9.99;65.74;101051.81;5028860;27;96769;-75
2024/02/27 05:54:34;;;;;;;18.40;11.20;;;;;;;10.00;65.46;101058.84;5029242;27;97998;-74
2024/02/27 05:57:00;;;;;;;18.10;11.82;;;;;;;10.13;65.11;101063.78;5025382;27;98834;-74
2024/02/27 05:59:27;;;;;;;23.30;11.50;;;;;;;9.92;65.98;101060.81;5029005;27;99043;-75
2024/02/27 06:01:53;;;;;;;18.48;11.98;;;;;;;9.92;66.16;101070.50;5026223;27;97950;-76
2024/02/27 06:04:21;;;;;;;24.52;12.68;;;;;;;9.95;65.82;101066.03;5027416;27;97598;-76
2024/02/27 06:06:48;;;;;;;21.73;12.10;;;;;;;9.81;66.84;101069.94;5021959;27;99063;-75
2024/02/27 06:09:14;;;;;;;21.48;13.63;;;;;;;9.72;66.62;101084.25;5028928;27;98751;-75
2024/02/27 06:11:41;;;;;;;21.92;12.98;;;;;;;9.82;66.74;101075.19;5030388;27;96880;-75
2024/02/27 06:14:07;;;;;;;22.70;12.88;;;;;;;9.91;66.17;101082.00;5030882;27;96837;-73
2024/02/27 06:16:34;;;;;;;22.92;13.45;;;;;;;9.94;66.34;101088.06;5028030;27;99003;-75
2024/02/27 06:19:00;;;;;;;23.83;13.73;;;;;;;9.72;66.85;101091.28;5030392;27;98536;-74
2024/02/27 06:24:13;;;;;;;23.92;13.68;;;;;;;9.91;66.76;101105.75;5030192;27;97078;-75
2024/02/27 06:26:41;;;;;;;21.77;13.43;;;;;;;9.93;66.52;101104.78;5030718;27;99358;-75
2024/02/27 06:29:08;;;;;;;29.67;17.35;;;;;;;9.87;66.83;101106.72;5028827;27;98076;-75
2024/02/27 06:31:35;;;;;;;23.75;14.02;;;;;;;9.88;67.02;101113.75;5027557;27;96753;-74
2024/02/27 06:34:03;;;;;;;25.52;14.70;;;;;;;9.79;67.48;101104.28;5029553;27;97559;-75
2024/02/27 06:36:31;;;;;;;23.63;14.20;;;;;;;9.91;67.13;101105.75;5028728;27;97238;-76
2024/02/27 06:39:00;;;;;;;23.25;14.40;;;;;;;9.87;66.92;101115.53;5025037;27;98952;-76
2024/02/27 06:41:27;;;;;;;23.02;14.18;;;;;;;9.95;66.60;101124.09;5022318;27;97050;-75
2024/02/27 06:43:53;;;;;;;28.60;16.02;;;;;;;10.08;66.48;101119.34;5030220;27;96823;-75
2024/02/27 06:46:20;;;;;;;27.58;14.85;;;;;;;10.14;66.57;101118.31;5027215;27;98925;-76
2024/02/27 06:48:46;;;;;;;28.25;15.45;;;;;;;10.13;66.45;101117.44;5023542;27;98779;-75
2024/02/27 06:51:13;;;;;;;28.45;16.50;;;;;;;10.08;66.79;101107.94;5023838;27;97654;-75
2024/02/27 06:53:42;;;;;;;32.40;16.52;;;;;;;10.08;67.15;101111.44;5021171;27;96835;-74
2024/02/27 06:56:08;;;;;;;33.05;18.27;;;;;;;9.95;67.25;101110.91;5027853;27;98554;-74
2024/02/27 06:58:35;;;;;;;30.85;19.10;;;;;;;9.94;67.59;101116.22;5026505;27;97962;-77
2024/02/27 07:01:02;;;;;;;30.33;17.80;;;;;;;10.07;67.72;101120.25;5026046;27;97980;-76
2024/02/27 07:03:29;;;;;;;31.40;18.98;;;;;;;10.19;67.28;101117.31;5020151;27;99074;-75
2024/02/27 07:05:57;;;;;;;36.00;19.48;;;;;;;10.39;66.42;101111.47;5028072;27;101725;-75
2024/02/27 07:08:24;;;;;;;42.50;20.13;;;;;;;10.33;66.92;101114.28;5031468;27;99393;-75
2024/02/27 07:10:51;;;;;;;35.55;19.15;;;;;;;10.23;67.77;101121.63;5023600;27;97635;-76
2024/02/27 07:13:18;;;;;;;37.65;19.63;;;;;;;10.37;66.86;101114.13;5025697;27;97643;-75
2024/02/27 07:15:45;;;;;;;32.35;18.88;;;;;;;10.37;67.02;101126.50;5024641;27;98091;-75
2024/02/27 07:18:15;;;;;;;33.45;18.67;;;;;;;10.35;67.51;101125.69;5030017;27;98695;-75
2024/02/27 07:20:41;;;;;;;34.72;20.17;;;;;;;10.52;66.62;101131.31;5021267;27;96836;-75
2024/02/27 07:23:08;;;;;;;35.72;20.10;;;;;;;10.48;66.88;101126.19;5025489;27;97196;-75
2024/02/27 07:25:34;;;;;;;39.53;20.27;;;;;;;10.50;66.88;101121.75;5027743;27;98989;-75
2024/02/27 07:28:02;;;;;;;39.80;20.20;;;;;;;10.41;67.65;101130.78;5020091;27;99128;-76
2024/02/27 07:30:29;;;;;;;36.75;19.30;;;;;;;10.31;68.32;101127.53;5014639;27;96887;-76
2024/02/27 07:32:55;;;;;;;37.63;21.25;;;;;;;10.52;67.68;101126.03;5023160;27;97185;-75
2024/02/27 07:35:22;;;;;;;35.80;19.98;;;;;;;10.28;68.26;101135.56;5018907;27;99311;-76
2024/02/27 07:37:49;;;;;;;40.42;21.48;;;;;;;10.52;68.12;101141.03;5022264;27;99027;-76
2024/02/27 07:40:16;;;;;;;36.15;20.17;;;;;;;10.58;68.34;101148.78;5018809;27;96957;-74
2024/02/27 07:42:46;;;;;;;37.30;20.45;;;;;;;10.72;67.47;101154.53;5021497;27;96828;-75
2024/02/27 07:45:15;;;;;;;41.40;21.90;;;;;;;10.63;67.86;101168.88;5017738;27;99167;-74
2024/02/27 07:47:42;;;;;;;43.78;23.10;;;;;;;10.72;68.04;101163.31;5020470;27;98130;-76
2024/02/27 07:50:09;;;;;;;48.70;22.63;;;;;;;10.78;67.78;101160.50;5025168;27;97481;-75
2024/02/27 07:52:36;;;;;;;43.17;21.05;;;;;;;10.59;68.64;101161.94;5022707;27;98405;-76
2024/02/27 07:55:03;;;;;;;43.50;22.02;;;;;;;10.57;69.23;101170.81;5019854;27;99078;-77
2024/02/27 07:57:29;;;;;;;45.80;22.45;;;;;;;10.44;69.79;101172.94;5017171;27;99773;-76
2024/02/27 07:59:56;;;;;;;44.13;21.35;;;;;;;10.46;69.72;101160.56;5024145;27;98747;-69
2024/02/27 08:02:25;;;;;;;38.58;20.80;;;;;;;10.53;70.28;101164.78;5019717;27;98243;-69
2024/02/27 08:04:52;;;;;;;46.00;21.15;;;;;;;10.60;69.57;101176.03;5018052;27;98920;-70
2024/02/27 08:07:18;;;;;;;42.33;21.83;;;;;;;10.72;69.10;101170.38;5020633;27;99210;-69
2024/02/27 08:09:45;;;;;;;41.17;21.15;;;;;;;10.79;69.14;101172.81;5022097;27;96755;-69
2024/02/27 08:12:12;;;;;;;46.92;21.30;;;;;;;10.92;69.04;101177.72;5025305;27;97275;-69
2024/02/27 08:14:38;;;;;;;43.08;21.88;;;;;;;11.21;67.76;101179.50;5020189;27;99234;-69
2024/02/27 08:17:05;;;;;;;40.10;20.25;;;;;;;11.11;67.59;101186.84;5021041;27;100764;-69
2024/02/27 08:19:34;;;;;;;47.30;21.08;;;;;;;10.98;68.35;101188.13;5015818;27;98896;-71
2024/02/27 08:22:03;;;;;;;43.25;20.98;;;;;;;11.10;67.92;101187.75;5019484;27;98386;-70
2024/02/27 08:24:30;;;;;;;44.20;22.30;;;;;;;10.74;68.95;101195.88;5019533;27;98876;-71
2024/02/27 08:26:57;;;;;;;37.50;19.40;;;;;;;10.93;68.74;101195.34;5025421;27;98769;-71
2024/02/27 08:29:23;;;;;;;43.83;22.27;;;;;;;10.98;68.57;101199.56;5030285;27;96830;-70
2024/02/27 08:31:50;;;;;;;40.28;20.13;;;;;;;10.73;69.80;101199.44;5020929;27;97271;-70
2024/02/27 08:34:18;;;;;;;41.30;21.17;;;;;;;10.72;69.90;101197.69;5020627;27;99360;-70
2024/02/27 08:36:46;;;;;;;45.10;22.65;;;;;;;10.60;70.19;101195.41;5027106;27;99056;-71
2024/02/27 08:39:13;;;;;;;44.22;23.13;;;;;;;10.80;69.73;101194.81;5026050;27;97777;-72
2024/02/27 08:41:39;;;;;;;42.63;21.65;;;;;;;10.85;69.51;101198.19;5020449;27;97660;-71
2024/02/27 08:44:09;;;;;;;44.58;23.27;;;;;;;10.52;70.83;101201.81;5028486;27;99074;-70
2024/02/27 08:46:37;;;;;;;42.72;22.58;;;;;;;10.68;70.27;101196.06;5019698;27;100935;-71
2024/02/27 08:49:04;;;;;;;43.67;22.67;;;;;;;10.72;70.11;101202.97;5025823;27;97604;-71
2024/02/27 08:51:31;;;;;;;45.53;22.48;;;;;;;10.91;69.66;101211.22;5023090;27;97132;-69
2024/02/27 08:53:58;;;;;;;40.35;21.95;;;;;;;10.82;70.00;101223.88;5030569;27;100737;-70
2024/02/27 08:56:25;;;;;;;48.05;22.35;;;;;;;10.75;69.52;101223.19;5023542;27;99177;-70
2024/02/27 08:58:51;;;;;;;45.10;22.73;;;;;;;10.65;70.44;101217.28;5029166;27;97699;-70
2024/02/27 09:01:18;;;;;;;47.42;24.35;;;;;;;10.82;70.08;101214.16;5032690;27;96830;-70
2024/02/27 09:03:44;;;;;;;47.35;24.30;;;;;;;10.79;70.18;101215.09;5028685;27;99518;-70
2024/02/27 09:06:11;;;;;;;42.20;22.13;;;;;;;10.88;69.98;101218.41;5026100;27;98692;-70
2024/02/27 09:08:38;;;;;;;40.67;21.17;;;;;;;10.95;69.40;101222.59;5027373;27;97875;-69
2024/02/27 09:11:06;;;;;;;40.70;21.58;;;;;;;10.99;69.44;101226.88;5024553;27;97762;-70
2024/02/27 09:13:32;;;;;;;42.05;21.15;;;;;;;11.21;68.50;101222.69;5024704;27;98827;-71
2024/02/27 09:15:59;;;;;;;37.42;20.60;;;;;;;11.27;68.27;101222.50;5029695;27;101880;-70
2024/02/27 09:18:29;;;;;;;36.42;21.13;;;;;;;11.26;67.57;101227.81;5031406;27;97640;-71
2024/02/27 09:20:55;;;;;;;37.47;19.88;;;;;;;11.23;67.70;101226.13;5030242;27;97344;-70
2024/02/27 09:23:21;;;;;;;37.22;19.80;;;;;;;11.30;67.41;101226.81;5022507;27;99300;-71
2024/02/27 09:25:48;;;;;;;37.45;21.15;;;;;;;11.10;68.43;101235.34;5021490;27;101754;-69
2024/02/27 09:28:16;;;;;;;36.72;19.42;;;;;;;11.01;68.32;101233.88;5026136;27;98691;-71
2024/02/27 09:30:42;;;;;;;36.72;20.88;;;;;;;10.90;69.35;101238.56;5023471;27;96798;-68
2024/02/27 09:33:09;;;;;;;35.13;20.05;;;;;;;10.96;68.51;101240.22;5029667;27;99198;-71
2024/02/27 09:35:35;;;;;;;37.17;19.80;;;;;;;11.21;68.19;101242.97;5031286;27;98018;-76
2024/02/27 09:38:02;;;;;;;36.80;18.48;;;;;;;11.22;67.52;101242.94;5027454;27;96749;-77
2024/02/27 09:40:29;;;;;;;33.63;19.85;;;;;;;11.23;67.26;101243.78;5025135;27;97514;-76
2024/02/27 09:42:59;;;;;;;35.05;18.55;;;;;;;11.33;66.87;101248.75;5028660;27;99005;-76
2024/02/27 09:45:27;;;;;;;34.58;19.77;;;;;;;11.17;67.70;101242.19;5023047;27;98820;-75
2024/02/27 09:47:55;;;;;;;42.75;23.08;;;;;;;11.35;66.75;101238.16;5028903;27;99271;-76
2024/02/27 09:50:22;;;;;;;126.03;23.13;;;;;;;11.28;66.82;101245.41;5031032;27;96919;-76
2024/02/27 09:52:50;;;;;;;33.00;18.80;;;;;;;11.31;66.52;101247.94;5034923;27;99179;-76
2024/02/27 09:55:19;;;;;;;38.00;19.70;;;;;;;11.52;66.49;101249.94;5025700;27;99142;-69
2024/02/27 09:57:47;;;;;;;34.75;19.60;;;;;;;11.68;65.50;101250.31;5030220;27;98421;-70
2024/02/27 10:00:15;;;;;;;32.80;19.27;;;;;;;11.80;65.06;101244.66;5031729;27;97364;-69
2024/02/27 10:02:44;;;;;;;37.95;19.45;;;;;;;11.85;64.72;101249.78;5028840;27;99663;-71
2024/02/27 10:05:15;;;;;;;33.45;19.70;;;;;;;11.52;65.60;101254.34;5026893;27;100567;-70
2024/02/27 10:07:44;;;;;;;34.05;18.40;;;;;;;11.64;65.29;101255.75;5026050;27;98852;-70
2024/02/27 10:10:11;;;;;;;33.40;18.75;;;;;;;11.70;65.03;101258.19;5030985;27;96813;-71
2024/02/27 10:12:37;;;;;;;34.13;19.83;;;;;;;11.68;64.87;101254.75;5022141;27;99078;-71
2024/02/27 10:15:05;;;;;;;32.83;18.83;;;;;;;11.63;65.39;101243.41;5020573;27;99437;-69
2024/02/27 10:17:35;;;;;;;35.08;20.80;;;;;;;11.69;65.06;101245.84;5026450;27;98176;-69
2024/02/27 10:20:04;;;;;;;34.28;18.67;;;;;;;11.67;65.51;101245.06;5026499;27;96845;-70
2024/02/27 10:22:31;;;;;;;33.08;19.35;;;;;;;11.67;65.40;101253.00;5021628;27;98858;-70
2024/02/27 10:25:05;;;;;;;35.00;19.75;;;;;;;11.55;66.30;101248.97;5025983;27;98905;-70
2024/02/27 10:27:32;;;;;;;68.63;19.92;;;;;;;11.87;65.09;101248.84;5028475;27;96953;-70
2024/02/27 10:29:58;;;;;;;34.67;18.35;;;;;;;12.04;63.98;101258.84;5020822;27;97579;-68
2024/02/27 10:32:25;;;;;;;37.28;18.58;;;;;;;11.92;64.51;101254.84;5030527;27;98999;-71
2024/02/27 10:34:54;;;;;;;31.52;17.75;;;;;;;12.15;64.02;101261.13;5033732;27;99231;-71
2024/02/27 10:37:24;;;;;;;31.23;17.50;;;;;;;12.15;63.31;101246.09;5028154;27;97042;-70
2024/02/27 10:39:50;;;;;;;30.77;17.15;;;;;;;12.00;63.58;101253.72;5031166;27;96902;-70
2024/02/27 10:42:17;;;;;;;33.40;17.50;;;;;;;11.96;63.98;101255.59;5030432;27;99325;-69
2024/02/27 10:44:44;;;;;;;33.78;17.95;;;;;;;11.64;64.49;101258.38;5021979;27;98814;-70
2024/02/27 10:47:11;;;;;;;29.40;18.45;;;;;;;11.71;64.77;101263.44;5028330;27;97551;-70
2024/02/27 10:49:37;;;;;;;31.20;17.75;;;;;;;11.56;65.51;101261.25;5024000;27;97195;-70
2024/02/27 10:52:06;;;;;;;29.25;17.13;;;;;;;11.86;64.88;101265.63;5029715;27;101867;-70
2024/02/27 10:54:34;;;;;;;35.58;19.40;;;;;;;11.90;64.42;101261.09;5029706;27;99990;-70
2024/02/27 10:57:02;;;;;;;33.60;18.10;;;;;;;11.89;64.24;101259.34;5024345;27;97660;-70
2024/02/27 10:59:32;;;;;;;30.92;17.52;;;;;;;12.10;63.41;101261.31;5025463;27;97453;-70
2024/02/27 11:02:01;;;;;;;30.75;15.68;;;;;;;12.30;63.15;101248.25;5027532;27;98878;-71
2024/02/27 11:04:33;;;;;;;30.58;17.05;;;;;;;12.34;62.32;101249.84;5029275;27;97769;-71
2024/02/27 11:07:01;;;;;;;31.23;17.05;;;;;;;12.20;62.79;101243.31;5024850;27;97292;-69
2024/02/27 11:09:30;;;;;;;27.17;16.50;;;;;;;12.19;62.93;101250.41;5026981;27;98865;-70
2024/02/27 11:12:03;;;;;;;30.08;16.23;;;;;;;12.39;62.16;101244.41;5022743;27;101314;-70
2024/02/27 11:14:31;;;;;;;26.98;16.30;;;;;;;12.41;61.96;101247.84;5024418;27;101647;-70
2024/02/27 11:17:01;;;;;;;28.90;15.88;;;;;;;12.35;61.94;101248.06;5032786;27;97091;-71
2024/02/27 11:19:29;;;;;;;25.48;16.38;;;;;;;12.19;62.38;101249.53;5033246;27;96852;-70